sensor_id;sensor_type;location;lat;lon;timestamp;temperature;humidity
69679;DHT22;56915;52.046;4.854;2022-09-09T00:02:22;14.60;99.90
69679;DHT22;56915;52.046;4.854;2022-09-09T00:04:59;14.50;99.90
69679;DHT22;56915;52.046;4.854;2022-09-09T00:08:11;14.40;99.90
69679;DHT22;56915;52.046;4.854;2022-09-09T00:10:34;14.40;99.90
69679;DHT22;56915;52.046;4.854;2022-09-09T00:16:17;14.30;99.90
69679;DHT22;56915;52.046;4.854;2022-09-09T00:19:20;14.20;99.90
69679;DHT22;56915;52.046;4.854;2022-09-09T00:22:06;14.20;99.90
69679;DHT22;56915;52.046;4.854;2022-09-09T00:24:56;14.10;99.90
69679;DHT22;56915;52.046;4.854;2022-09-09T00:27:41;14.10;99.90
69679;DHT22;56915;52.046;4.854;2022-09-09T00:30:22;14.10;99.90
69679;DHT22;56915;52.046;4.854;2022-09-09T00:32:58;14.00;99.90
69679;DHT22;56915;52.046;4.854;2022-09-09T00:35:35;14.00;99.90
69679;DHT22;56915;52.046;4.854;2022-09-09T00:38:18;14.00;99.90
69679;DHT22;56915;52.046;4.854;2022-09-09T00:40:59;14.00;99.90
69679;DHT22;56915;52.046;4.854;2022-09-09T00:43:38;13.90;99.90
69679;DHT22;56915;52.046;4.854;2022-09-09T00:46:41;13.90;99.90
69679;DHT22;56915;52.046;4.854;2022-09-09T00:49:37;13.90;99.90
69679;DHT22;56915;52.046;4.854;2022-09-09T00:52:23;13.80;99.90
69679;DHT22;56915;52.046;4.854;2022-09-09T00:57:30;13.80;99.90
69679;DHT22;56915;52.046;4.854;2022-09-09T01:07:52;13.70;99.90
69679;DHT22;56915;52.046;4.854;2022-09-09T01:10:47;13.70;99.90
69679;DHT22;56915;52.046;4.854;2022-09-09T01:13:28;13.70;99.90
69679;DHT22;56915;52.046;4.854;2022-09-09T01:16:04;13.70;99.90
69679;DHT22;56915;52.046;4.854;2022-09-09T01:18:46;13.70;99.90
69679;DHT22;56915;52.046;4.854;2022-09-09T01:21:33;13.70;99.90
69679;DHT22;56915;52.046;4.854;2022-09-09T01:26:46;13.60;99.90
69679;DHT22;56915;52.046;4.854;2022-09-09T01:29:16;13.60;99.90
69679;DHT22;56915;52.046;4.854;2022-09-09T01:32:00;13.60;99.90
69679;DHT22;56915;52.046;4.854;2022-09-09T01:34:31;13.50;99.90
69679;DHT22;56915;52.046;4.854;2022-09-09T01:37:06;13.50;99.90
69679;DHT22;56915;52.046;4.854;2022-09-09T01:39:35;13.50;99.90
69679;DHT22;56915;52.046;4.854;2022-09-09T01:42:04;13.50;99.90
69679;DHT22;56915;52.046;4.854;2022-09-09T01:44:34;13.50;99.90
69679;DHT22;56915;52.046;4.854;2022-09-09T01:47:02;13.50;99.90
69679;DHT22;56915;52.046;4.854;2022-09-09T01:49:30;13.50;99.90
69679;DHT22;56915;52.046;4.854;2022-09-09T01:51:57;13.50;99.90
69679;DHT22;56915;52.046;4.854;2022-09-09T01:54:27;13.60;99.90
69679;DHT22;56915;52.046;4.854;2022-09-09T01:57:10;13.60;99.90
69679;DHT22;56915;52.046;4.854;2022-09-09T02:00:09;13.70;99.90
69679;DHT22;56915;52.046;4.854;2022-09-09T02:03:14;13.80;99.90
69679;DHT22;56915;52.046;4.854;2022-09-09T02:11:18;13.90;99.90
69679;DHT22;56915;52.046;4.854;2022-09-09T02:13:47;14.00;99.90
69679;DHT22;56915;52.046;4.854;2022-09-09T02:19:00;14.00;99.90
69679;DHT22;56915;52.046;4.854;2022-09-09T02:21:29;14.00;99.90
69679;DHT22;56915;52.046;4.854;2022-09-09T02:24:13;14.00;99.90
69679;DHT22;56915;52.046;4.854;2022-09-09T02:26:42;14.00;99.90
69679;DHT22;56915;52.046;4.854;2022-09-09T02:29:23;14.00;99.90
69679;DHT22;56915;52.046;4.854;2022-09-09T02:31:52;14.00;99.90
69679;DHT22;56915;52.046;4.854;2022-09-09T02:34:22;14.00;99.90
69679;DHT22;56915;52.046;4.854;2022-09-09T02:36:53;14.00;99.90
69679;DHT22;56915;52.046;4.854;2022-09-09T02:39:20;14.00;99.90
69679;DHT22;56915;52.046;4.854;2022-09-09T02:41:47;13.90;99.90
69679;DHT22;56915;52.046;4.854;2022-09-09T02:44:15;13.80;99.90
69679;DHT22;56915;52.046;4.854;2022-09-09T02:52:20;13.60;99.90
69679;DHT22;56915;52.046;4.854;2022-09-09T02:54:57;13.50;99.90
69679;DHT22;56915;52.046;4.854;2022-09-09T02:57:27;13.50;99.90
69679;DHT22;56915;52.046;4.854;2022-09-09T02:59:59;13.40;99.90
69679;DHT22;56915;52.046;4.854;2022-09-09T03:02:27;13.30;99.90
69679;DHT22;56915;52.046;4.854;2022-09-09T03:04:54;13.30;99.90
69679;DHT22;56915;52.046;4.854;2022-09-09T03:07:21;13.30;99.90
69679;DHT22;56915;52.046;4.854;2022-09-09T03:09:47;13.20;99.90
69679;DHT22;56915;52.046;4.854;2022-09-09T03:12:15;13.20;99.90
69679;DHT22;56915;52.046;4.854;2022-09-09T03:14:42;13.10;99.90
69679;DHT22;56915;52.046;4.854;2022-09-09T03:17:11;13.10;99.90
69679;DHT22;56915;52.046;4.854;2022-09-09T03:19:38;13.10;99.90
69679;DHT22;56915;52.046;4.854;2022-09-09T03:22:08;13.00;99.90
69679;DHT22;56915;52.046;4.854;2022-09-09T03:24:36;13.00;99.90
69679;DHT22;56915;52.046;4.854;2022-09-09T03:27:03;13.00;99.90
69679;DHT22;56915;52.046;4.854;2022-09-09T03:29:29;13.00;99.90
69679;DHT22;56915;52.046;4.854;2022-09-09T03:31:56;12.90;99.90
69679;DHT22;56915;52.046;4.854;2022-09-09T03:34:23;12.90;99.90
69679;DHT22;56915;52.046;4.854;2022-09-09T03:36:49;12.90;99.90
69679;DHT22;56915;52.046;4.854;2022-09-09T03:39:16;12.90;99.90
69679;DHT22;56915;52.046;4.854;2022-09-09T03:41:43;12.90;99.90
69679;DHT22;56915;52.046;4.854;2022-09-09T03:44:11;12.90;99.90
69679;DHT22;56915;52.046;4.854;2022-09-09T03:46:38;13.00;99.90
69679;DHT22;56915;52.046;4.854;2022-09-09T03:49:05;13.00;99.90
69679;DHT22;56915;52.046;4.854;2022-09-09T03:51:31;13.00;99.90
69679;DHT22;56915;52.046;4.854;2022-09-09T03:54:03;13.00;99.90
69679;DHT22;56915;52.046;4.854;2022-09-09T03:56:31;13.00;99.90
69679;DHT22;56915;52.046;4.854;2022-09-09T03:58:58;13.00;99.90
69679;DHT22;56915;52.046;4.854;2022-09-09T04:01:25;13.00;99.90
69679;DHT22;56915;52.046;4.854;2022-09-09T04:03:51;13.00;99.90
69679;DHT22;56915;52.046;4.854;2022-09-09T04:06:19;13.00;99.90
69679;DHT22;56915;52.046;4.854;2022-09-09T04:08:49;13.00;99.90
69679;DHT22;56915;52.046;4.854;2022-09-09T04:11:17;13.00;99.90
69679;DHT22;56915;52.046;4.854;2022-09-09T04:13:44;13.00;99.90
69679;DHT22;56915;52.046;4.854;2022-09-09T04:16:12;13.00;99.90
69679;DHT22;56915;52.046;4.854;2022-09-09T04:18:40;13.10;99.90
69679;DHT22;56915;52.046;4.854;2022-09-09T04:21:08;13.10;99.90
69679;DHT22;56915;52.046;4.854;2022-09-09T04:23:36;13.10;99.90
69679;DHT22;56915;52.046;4.854;2022-09-09T04:26:03;13.10;99.90
69679;DHT22;56915;52.046;4.854;2022-09-09T04:28:33;13.10;99.90
69679;DHT22;56915;52.046;4.854;2022-09-09T04:31:05;13.10;99.90
69679;DHT22;56915;52.046;4.854;2022-09-09T04:33:32;13.10;99.90
69679;DHT22;56915;52.046;4.854;2022-09-09T04:36:05;13.10;99.90
69679;DHT22;56915;52.046;4.854;2022-09-09T04:38:32;13.10;99.90
69679;DHT22;56915;52.046;4.854;2022-09-09T04:40:59;13.10;99.90
69679;DHT22;56915;52.046;4.854;2022-09-09T04:43:26;13.10;99.90
69679;DHT22;56915;52.046;4.854;2022-09-09T04:45:53;13.10;99.90
69679;DHT22;56915;52.046;4.854;2022-09-09T04:48:20;13.10;99.90
69679;DHT22;56915;52.046;4.854;2022-09-09T04:51:02;13.10;99.90
69679;DHT22;56915;52.046;4.854;2022-09-09T04:53:31;13.00;99.90
69679;DHT22;56915;52.046;4.854;2022-09-09T04:56:15;13.00;99.90
69679;DHT22;56915;52.046;4.854;2022-09-09T04:58:42;13.00;99.90
69679;DHT22;56915;52.046;4.854;2022-09-09T05:01:15;13.00;99.90
69679;DHT22;56915;52.046;4.854;2022-09-09T05:03:44;13.00;99.90
69679;DHT22;56915;52.046;4.854;2022-09-09T05:06:16;13.00;99.90
69679;DHT22;56915;52.046;4.854;2022-09-09T05:08:43;13.10;99.90
69679;DHT22;56915;52.046;4.854;2022-09-09T05:11:25;13.10;99.90
69679;DHT22;56915;52.046;4.854;2022-09-09T05:13:53;13.10;99.90
69679;DHT22;56915;52.046;4.854;2022-09-09T05:16:20;13.10;99.90
69679;DHT22;56915;52.046;4.854;2022-09-09T05:21:39;13.20;99.90
69679;DHT22;56915;52.046;4.854;2022-09-09T05:24:06;13.20;99.90
69679;DHT22;56915;52.046;4.854;2022-09-09T05:26:33;13.30;99.90
69679;DHT22;56915;52.046;4.854;2022-09-09T05:28:59;13.30;99.90
69679;DHT22;56915;52.046;4.854;2022-09-09T05:31:27;13.30;99.90
69679;DHT22;56915;52.046;4.854;2022-09-09T05:33:56;13.40;99.90
69679;DHT22;56915;52.046;4.854;2022-09-09T05:36:23;13.40;99.90
69679;DHT22;56915;52.046;4.854;2022-09-09T05:38:49;13.50;99.90
69679;DHT22;56915;52.046;4.854;2022-09-09T05:41:17;13.50;99.90
69679;DHT22;56915;52.046;4.854;2022-09-09T05:43:44;13.60;99.90
69679;DHT22;56915;52.046;4.854;2022-09-09T05:46:15;13.70;99.90
69679;DHT22;56915;52.046;4.854;2022-09-09T05:48:44;13.80;99.90
69679;DHT22;56915;52.046;4.854;2022-09-09T05:51:17;13.90;99.90
69679;DHT22;56915;52.046;4.854;2022-09-09T05:53:45;13.90;99.90
69679;DHT22;56915;52.046;4.854;2022-09-09T05:56:17;14.00;99.90
69679;DHT22;56915;52.046;4.854;2022-09-09T05:58:45;14.20;99.90
69679;DHT22;56915;52.046;4.854;2022-09-09T06:01:19;14.30;99.90
69679;DHT22;56915;52.046;4.854;2022-09-09T06:03:47;14.50;99.90
69679;DHT22;56915;52.046;4.854;2022-09-09T06:06:16;14.60;99.90
69679;DHT22;56915;52.046;4.854;2022-09-09T06:08:44;14.70;99.90
69679;DHT22;56915;52.046;4.854;2022-09-09T06:11:14;14.90;99.90
69679;DHT22;56915;52.046;4.854;2022-09-09T06:13:41;15.10;99.90
69679;DHT22;56915;52.046;4.854;2022-09-09T06:16:10;15.30;99.90
69679;DHT22;56915;52.046;4.854;2022-09-09T06:18:39;15.40;99.90
69679;DHT22;56915;52.046;4.854;2022-09-09T06:21:14;15.50;99.90
69679;DHT22;56915;52.046;4.854;2022-09-09T06:23:41;15.70;99.90
69679;DHT22;56915;52.046;4.854;2022-09-09T06:26:17;15.80;99.90
69679;DHT22;56915;52.046;4.854;2022-09-09T06:28:49;15.90;99.90
69679;DHT22;56915;52.046;4.854;2022-09-09T06:31:18;16.00;99.90
69679;DHT22;56915;52.046;4.854;2022-09-09T06:33:54;16.10;99.90
69679;DHT22;56915;52.046;4.854;2022-09-09T06:36:30;16.10;99.90
69679;DHT22;56915;52.046;4.854;2022-09-09T06:38:59;16.30;99.90
69679;DHT22;56915;52.046;4.854;2022-09-09T06:41:30;16.30;99.90
69679;DHT22;56915;52.046;4.854;2022-09-09T06:43:57;16.40;99.90
69679;DHT22;56915;52.046;4.854;2022-09-09T06:46:26;16.40;99.90
69679;DHT22;56915;52.046;4.854;2022-09-09T06:48:57;16.50;99.90
69679;DHT22;56915;52.046;4.854;2022-09-09T06:51:28;16.60;99.90
69679;DHT22;56915;52.046;4.854;2022-09-09T06:53:57;16.70;99.90
69679;DHT22;56915;52.046;4.854;2022-09-09T06:56:38;16.80;99.90
69679;DHT22;56915;52.046;4.854;2022-09-09T06:59:11;16.90;99.90
69679;DHT22;56915;52.046;4.854;2022-09-09T07:01:40;17.00;99.90
69679;DHT22;56915;52.046;4.854;2022-09-09T07:04:07;17.10;99.90
69679;DHT22;56915;52.046;4.854;2022-09-09T07:06:37;17.10;99.90
69679;DHT22;56915;52.046;4.854;2022-09-09T07:09:07;17.20;99.90
69679;DHT22;56915;52.046;4.854;2022-09-09T07:11:46;17.20;99.80
69679;DHT22;56915;52.046;4.854;2022-09-09T07:14:14;17.20;99.30
69679;DHT22;56915;52.046;4.854;2022-09-09T07:16:42;17.20;99.40
69679;DHT22;56915;52.046;4.854;2022-09-09T07:19:09;17.20;99.00
69679;DHT22;56915;52.046;4.854;2022-09-09T07:21:37;17.20;98.60
69679;DHT22;56915;52.046;4.854;2022-09-09T07:24:04;17.20;98.20
69679;DHT22;56915;52.046;4.854;2022-09-09T07:26:34;17.20;98.50
69679;DHT22;56915;52.046;4.854;2022-09-09T07:29:00;17.30;98.30
69679;DHT22;56915;52.046;4.854;2022-09-09T07:31:30;17.30;98.10
69679;DHT22;56915;52.046;4.854;2022-09-09T07:33:58;17.40;97.80
69679;DHT22;56915;52.046;4.854;2022-09-09T07:36:34;17.50;97.30
69679;DHT22;56915;52.046;4.854;2022-09-09T07:39:04;17.50;96.90
69679;DHT22;56915;52.046;4.854;2022-09-09T07:41:37;17.60;96.90
69679;DHT22;56915;52.046;4.854;2022-09-09T07:44:09;17.60;96.50
69679;DHT22;56915;52.046;4.854;2022-09-09T07:46:37;17.70;96.60
69679;DHT22;56915;52.046;4.854;2022-09-09T07:49:07;17.90;96.60
69679;DHT22;56915;52.046;4.854;2022-09-09T07:51:42;18.00;96.20
69679;DHT22;56915;52.046;4.854;2022-09-09T07:54:12;18.20;95.30
69679;DHT22;56915;52.046;4.854;2022-09-09T07:56:43;18.20;94.90
69679;DHT22;56915;52.046;4.854;2022-09-09T07:59:10;18.30;94.80
69679;DHT22;56915;52.046;4.854;2022-09-09T08:01:41;18.40;94.30
69679;DHT22;56915;52.046;4.854;2022-09-09T08:04:11;18.40;93.80
69679;DHT22;56915;52.046;4.854;2022-09-09T08:06:47;18.50;93.90
69679;DHT22;56915;52.046;4.854;2022-09-09T08:09:15;18.50;92.80
69679;DHT22;56915;52.046;4.854;2022-09-09T08:11:42;18.40;92.30
69679;DHT22;56915;52.046;4.854;2022-09-09T08:14:10;18.30;92.40
69679;DHT22;56915;52.046;4.854;2022-09-09T08:16:46;18.20;92.60
69679;DHT22;56915;52.046;4.854;2022-09-09T08:19:14;18.20;92.00
69679;DHT22;56915;52.046;4.854;2022-09-09T08:21:44;18.00;92.20
69679;DHT22;56915;52.046;4.854;2022-09-09T08:24:12;17.90;92.70
69679;DHT22;56915;52.046;4.854;2022-09-09T08:26:43;17.80;92.80
69679;DHT22;56915;52.046;4.854;2022-09-09T08:29:11;17.80;93.10
69679;DHT22;56915;52.046;4.854;2022-09-09T08:31:55;17.80;92.90
69679;DHT22;56915;52.046;4.854;2022-09-09T08:34:24;17.80;92.60
69679;DHT22;56915;52.046;4.854;2022-09-09T08:36:52;17.80;92.60
69679;DHT22;56915;52.046;4.854;2022-09-09T08:39:20;17.80;92.50
69679;DHT22;56915;52.046;4.854;2022-09-09T08:52:22;18.30;91.90
69679;DHT22;56915;52.046;4.854;2022-09-09T08:54:50;18.50;91.40
69679;DHT22;56915;52.046;4.854;2022-09-09T08:57:21;18.50;90.60
69679;DHT22;56915;52.046;4.854;2022-09-09T08:59:54;18.60;90.40
69679;DHT22;56915;52.046;4.854;2022-09-09T09:02:30;18.60;90.10
69679;DHT22;56915;52.046;4.854;2022-09-09T09:07:54;18.50;89.90
69679;DHT22;56915;52.046;4.854;2022-09-09T09:11:08;18.50;89.80
69679;DHT22;56915;52.046;4.854;2022-09-09T09:13:45;18.60;90.30
69679;DHT22;56915;52.046;4.854;2022-09-09T09:18:51;18.60;87.80
69679;DHT22;56915;52.046;4.854;2022-09-09T09:21:29;18.50;89.20
69679;DHT22;56915;52.046;4.854;2022-09-09T09:24:00;18.50;89.50
69679;DHT22;56915;52.046;4.854;2022-09-09T09:26:32;18.50;89.70
69679;DHT22;56915;52.046;4.854;2022-09-09T09:29:03;18.50;90.30
69679;DHT22;56915;52.046;4.854;2022-09-09T09:31:34;18.60;90.60
69679;DHT22;56915;52.046;4.854;2022-09-09T09:34:01;18.70;90.10
69679;DHT22;56915;52.046;4.854;2022-09-09T09:36:40;18.80;89.30
69679;DHT22;56915;52.046;4.854;2022-09-09T09:39:08;18.80;87.40
69679;DHT22;56915;52.046;4.854;2022-09-09T09:41:56;18.70;87.50
69679;DHT22;56915;52.046;4.854;2022-09-09T09:44:33;18.70;88.20
69679;DHT22;56915;52.046;4.854;2022-09-09T09:47:16;18.70;89.00
69679;DHT22;56915;52.046;4.854;2022-09-09T09:49:57;18.70;89.40
69679;DHT22;56915;52.046;4.854;2022-09-09T09:52:31;18.60;89.60
69679;DHT22;56915;52.046;4.854;2022-09-09T09:54:59;18.50;89.90
69679;DHT22;56915;52.046;4.854;2022-09-09T09:57:33;18.20;90.70
69679;DHT22;56915;52.046;4.854;2022-09-09T10:00:19;18.10;91.30
69679;DHT22;56915;52.046;4.854;2022-09-09T10:02:47;17.90;92.30
69679;DHT22;56915;52.046;4.854;2022-09-09T10:05:16;18.00;93.10
69679;DHT22;56915;52.046;4.854;2022-09-09T10:08:01;18.30;93.80
69679;DHT22;56915;52.046;4.854;2022-09-09T10:10:41;18.80;93.80
69679;DHT22;56915;52.046;4.854;2022-09-09T10:16:25;19.50;91.80
69679;DHT22;56915;52.046;4.854;2022-09-09T10:19:06;19.80;91.20
69679;DHT22;56915;52.046;4.854;2022-09-09T10:22:08;20.10;90.80
69679;DHT22;56915;52.046;4.854;2022-09-09T10:24:42;20.50;89.70
69679;DHT22;56915;52.046;4.854;2022-09-09T10:27:33;20.80;86.00
69679;DHT22;56915;52.046;4.854;2022-09-09T10:30:18;20.90;82.30
69679;DHT22;56915;52.046;4.854;2022-09-09T10:32:57;21.00;81.90
69679;DHT22;56915;52.046;4.854;2022-09-09T10:35:53;21.20;80.60
69679;DHT22;56915;52.046;4.854;2022-09-09T10:50:35;20.80;71.70
69679;DHT22;56915;52.046;4.854;2022-09-09T10:56:10;20.20;78.80
69679;DHT22;56915;52.046;4.854;2022-09-09T10:58:49;20.20;79.60
69679;DHT22;56915;52.046;4.854;2022-09-09T11:01:31;20.10;79.50
69679;DHT22;56915;52.046;4.854;2022-09-09T11:04:15;19.80;79.70
69679;DHT22;56915;52.046;4.854;2022-09-09T11:06:48;19.50;81.80
69679;DHT22;56915;52.046;4.854;2022-09-09T11:09:22;19.20;83.30
69679;DHT22;56915;52.046;4.854;2022-09-09T11:11:55;19.00;85.80
69679;DHT22;56915;52.046;4.854;2022-09-09T11:17:18;18.90;87.50
69679;DHT22;56915;52.046;4.854;2022-09-09T11:19:45;18.70;89.00
69679;DHT22;56915;52.046;4.854;2022-09-09T11:27:59;18.20;91.10
69679;DHT22;56915;52.046;4.854;2022-09-09T11:30:34;18.00;92.10
69679;DHT22;56915;52.046;4.854;2022-09-09T11:36:47;18.10;94.70
69679;DHT22;56915;52.046;4.854;2022-09-09T11:39:32;18.50;94.70
69679;DHT22;56915;52.046;4.854;2022-09-09T11:42:20;19.20;95.30
69679;DHT22;56915;52.046;4.854;2022-09-09T11:44:48;20.10;92.90
69679;DHT22;56915;52.046;4.854;2022-09-09T11:49:46;21.00;87.40
69679;DHT22;56915;52.046;4.854;2022-09-09T11:52:45;21.10;85.10
69679;DHT22;56915;52.046;4.854;2022-09-09T11:55:29;21.10;83.30
69679;DHT22;56915;52.046;4.854;2022-09-09T11:58:01;21.30;84.30
69679;DHT22;56915;52.046;4.854;2022-09-09T12:00:43;21.60;83.10
69679;DHT22;56915;52.046;4.854;2022-09-09T12:06:17;21.20;78.70
69679;DHT22;56915;52.046;4.854;2022-09-09T12:08:52;20.80;78.90
69679;DHT22;56915;52.046;4.854;2022-09-09T12:11:29;20.40;81.80
69679;DHT22;56915;52.046;4.854;2022-09-09T12:14:00;20.30;84.60
69679;DHT22;56915;52.046;4.854;2022-09-09T12:16:33;20.50;85.20
69679;DHT22;56915;52.046;4.854;2022-09-09T12:19:16;20.70;83.90
69679;DHT22;56915;52.046;4.854;2022-09-09T12:24:42;21.00;80.70
69679;DHT22;56915;52.046;4.854;2022-09-09T12:27:19;21.10;79.60
69679;DHT22;56915;52.046;4.854;2022-09-09T12:29:58;21.10;78.60
69679;DHT22;56915;52.046;4.854;2022-09-09T12:32:28;21.00;77.30
69679;DHT22;56915;52.046;4.854;2022-09-09T12:35:07;20.90;77.40
69679;DHT22;56915;52.046;4.854;2022-09-09T12:40:14;20.70;78.20
69679;DHT22;56915;52.046;4.854;2022-09-09T12:42:45;20.60;77.80
69679;DHT22;56915;52.046;4.854;2022-09-09T12:45:29;20.50;78.90
69679;DHT22;56915;52.046;4.854;2022-09-09T12:48:03;20.30;79.90
69679;DHT22;56915;52.046;4.854;2022-09-09T12:50:34;20.10;82.20
69679;DHT22;56915;52.046;4.854;2022-09-09T12:53:08;20.00;83.00
69679;DHT22;56915;52.046;4.854;2022-09-09T12:55:38;19.90;84.10
69679;DHT22;56915;52.046;4.854;2022-09-09T12:58:06;19.90;84.80
69679;DHT22;56915;52.046;4.854;2022-09-09T13:00:34;19.90;84.20
69679;DHT22;56915;52.046;4.854;2022-09-09T13:03:13;19.90;85.90
69679;DHT22;56915;52.046;4.854;2022-09-09T13:05:42;19.90;85.90
69679;DHT22;56915;52.046;4.854;2022-09-09T13:08:11;20.00;86.00
69679;DHT22;56915;52.046;4.854;2022-09-09T13:10:46;20.00;84.70
69679;DHT22;56915;52.046;4.854;2022-09-09T13:13:26;20.00;84.20
69679;DHT22;56915;52.046;4.854;2022-09-09T13:15:58;19.90;84.70
69679;DHT22;56915;52.046;4.854;2022-09-09T13:18:36;19.90;85.20
69679;DHT22;56915;52.046;4.854;2022-09-09T13:21:04;19.70;85.60
69679;DHT22;56915;52.046;4.854;2022-09-09T13:23:33;19.70;87.00
69679;DHT22;56915;52.046;4.854;2022-09-09T13:26:28;19.70;87.60
69679;DHT22;56915;52.046;4.854;2022-09-09T13:28:54;19.70;87.10
69679;DHT22;56915;52.046;4.854;2022-09-09T13:31:29;19.70;86.70
69679;DHT22;56915;52.046;4.854;2022-09-09T13:33:56;19.60;86.60
69679;DHT22;56915;52.046;4.854;2022-09-09T13:36:31;19.40;87.30
69679;DHT22;56915;52.046;4.854;2022-09-09T13:38:59;19.20;88.60
69679;DHT22;56915;52.046;4.854;2022-09-09T13:41:36;19.00;89.80
69679;DHT22;56915;52.046;4.854;2022-09-09T13:44:03;18.80;90.40
69679;DHT22;56915;52.046;4.854;2022-09-09T13:46:40;18.60;90.90
69679;DHT22;56915;52.046;4.854;2022-09-09T13:51:48;18.20;92.90
69679;DHT22;56915;52.046;4.854;2022-09-09T13:54:19;18.30;94.30
69679;DHT22;56915;52.046;4.854;2022-09-09T13:56:48;18.50;94.70
69679;DHT22;56915;52.046;4.854;2022-09-09T13:59:19;19.00;95.30
69679;DHT22;56915;52.046;4.854;2022-09-09T14:02:08;19.70;94.50
69679;DHT22;56915;52.046;4.854;2022-09-09T14:04:34;20.40;92.20
69679;DHT22;56915;52.046;4.854;2022-09-09T14:07:02;20.70;90.20
69679;DHT22;56915;52.046;4.854;2022-09-09T14:09:29;21.00;90.40
69679;DHT22;56915;52.046;4.854;2022-09-09T14:11:56;21.40;87.90
69679;DHT22;56915;52.046;4.854;2022-09-09T14:14:24;21.80;87.20
69679;DHT22;56915;52.046;4.854;2022-09-09T14:16:52;22.20;81.10
69679;DHT22;56915;52.046;4.854;2022-09-09T14:19:19;22.30;76.60
69679;DHT22;56915;52.046;4.854;2022-09-09T14:21:46;22.00;72.10
69679;DHT22;56915;52.046;4.854;2022-09-09T14:24:13;21.60;72.10
69679;DHT22;56915;52.046;4.854;2022-09-09T14:26:40;21.00;71.90
69679;DHT22;56915;52.046;4.854;2022-09-09T14:29:07;20.50;75.70
69679;DHT22;56915;52.046;4.854;2022-09-09T14:31:36;20.10;78.70
69679;DHT22;56915;52.046;4.854;2022-09-09T14:34:03;19.60;81.40
69679;DHT22;56915;52.046;4.854;2022-09-09T14:36:30;19.20;84.70
69679;DHT22;56915;52.046;4.854;2022-09-09T14:38:57;18.90;87.50
69679;DHT22;56915;52.046;4.854;2022-09-09T14:41:24;18.70;90.00
69679;DHT22;56915;52.046;4.854;2022-09-09T14:43:51;18.50;90.90
69679;DHT22;56915;52.046;4.854;2022-09-09T14:46:19;18.50;91.50
69679;DHT22;56915;52.046;4.854;2022-09-09T14:48:46;18.50;91.90
69679;DHT22;56915;52.046;4.854;2022-09-09T14:51:22;18.40;92.40
69679;DHT22;56915;52.046;4.854;2022-09-09T14:53:53;18.50;92.80
69679;DHT22;56915;52.046;4.854;2022-09-09T14:56:23;18.60;93.10
69679;DHT22;56915;52.046;4.854;2022-09-09T14:58:52;18.80;93.30
69679;DHT22;56915;52.046;4.854;2022-09-09T15:01:20;19.00;93.40
69679;DHT22;56915;52.046;4.854;2022-09-09T15:03:58;19.10;93.10
69679;DHT22;56915;52.046;4.854;2022-09-09T15:06:31;19.40;93.00
69679;DHT22;56915;52.046;4.854;2022-09-09T15:09:00;19.60;92.50
69679;DHT22;56915;52.046;4.854;2022-09-09T15:11:29;19.90;92.20
69679;DHT22;56915;52.046;4.854;2022-09-09T15:14:00;20.20;91.70
69679;DHT22;56915;52.046;4.854;2022-09-09T15:16:28;20.40;90.60
69679;DHT22;56915;52.046;4.854;2022-09-09T15:18:58;20.60;90.70
69679;DHT22;56915;52.046;4.854;2022-09-09T15:21:28;20.90;89.70
69679;DHT22;56915;52.046;4.854;2022-09-09T15:23:56;21.20;86.70
69679;DHT22;56915;52.046;4.854;2022-09-09T15:26:25;21.30;83.60
69679;DHT22;56915;52.046;4.854;2022-09-09T15:28:55;21.30;83.40
69679;DHT22;56915;52.046;4.854;2022-09-09T15:31:28;21.50;82.30
69679;DHT22;56915;52.046;4.854;2022-09-09T15:34:03;21.60;82.00
69679;DHT22;56915;52.046;4.854;2022-09-09T15:36:32;21.60;80.50
69679;DHT22;56915;52.046;4.854;2022-09-09T15:39:01;21.60;80.00
69679;DHT22;56915;52.046;4.854;2022-09-09T15:41:29;21.70;80.20
69679;DHT22;56915;52.046;4.854;2022-09-09T15:43:58;22.10;80.10
69679;DHT22;56915;52.046;4.854;2022-09-09T15:46:33;23.20;79.90
69679;DHT22;56915;52.046;4.854;2022-09-09T15:49:09;24.10;68.90
69679;DHT22;56915;52.046;4.854;2022-09-09T15:51:42;24.00;62.20
69679;DHT22;56915;52.046;4.854;2022-09-09T15:54:15;23.60;61.60
69679;DHT22;56915;52.046;4.854;2022-09-09T15:56:51;23.70;66.00
69679;DHT22;56915;52.046;4.854;2022-09-09T15:59:18;25.00;67.20
69679;DHT22;56915;52.046;4.854;2022-09-09T16:01:45;27.00;60.10
69679;DHT22;56915;52.046;4.854;2022-09-09T16:04:12;28.90;51.20
69679;DHT22;56915;52.046;4.854;2022-09-09T16:06:39;30.50;46.40
69679;DHT22;56915;52.046;4.854;2022-09-09T16:09:07;31.10;42.40
69679;DHT22;56915;52.046;4.854;2022-09-09T16:11:36;30.00;40.30
69679;DHT22;56915;52.046;4.854;2022-09-09T16:14:03;28.40;40.50
69679;DHT22;56915;52.046;4.854;2022-09-09T16:16:30;26.90;42.00
69679;DHT22;56915;52.046;4.854;2022-09-09T16:18:59;25.70;44.00
69679;DHT22;56915;52.046;4.854;2022-09-09T16:21:29;24.80;45.70
69679;DHT22;56915;52.046;4.854;2022-09-09T16:23:58;23.90;48.10
69679;DHT22;56915;52.046;4.854;2022-09-09T16:26:31;23.20;50.50
69679;DHT22;56915;52.046;4.854;2022-09-09T16:28:59;22.60;52.70
69679;DHT22;56915;52.046;4.854;2022-09-09T16:31:27;22.00;55.60
69679;DHT22;56915;52.046;4.854;2022-09-09T16:33:55;21.40;58.90
69679;DHT22;56915;52.046;4.854;2022-09-09T16:36:28;21.00;61.90
69679;DHT22;56915;52.046;4.854;2022-09-09T16:39:04;20.60;64.90
69679;DHT22;56915;52.046;4.854;2022-09-09T16:41:32;20.30;67.60
69679;DHT22;56915;52.046;4.854;2022-09-09T16:44:01;20.00;70.20
69679;DHT22;56915;52.046;4.854;2022-09-09T16:46:30;19.80;72.50
69679;DHT22;56915;52.046;4.854;2022-09-09T16:48:58;19.60;74.30
69679;DHT22;56915;52.046;4.854;2022-09-09T16:51:28;19.40;76.40
69679;DHT22;56915;52.046;4.854;2022-09-09T16:53:58;19.10;79.00
69679;DHT22;56915;52.046;4.854;2022-09-09T16:56:27;18.70;81.40
69679;DHT22;56915;52.046;4.854;2022-09-09T16:58:56;18.40;84.20
69679;DHT22;56915;52.046;4.854;2022-09-09T17:01:33;18.10;87.00
69679;DHT22;56915;52.046;4.854;2022-09-09T17:04:04;17.90;89.70
69679;DHT22;56915;52.046;4.854;2022-09-09T17:06:33;17.80;91.00
69679;DHT22;56915;52.046;4.854;2022-09-09T17:09:09;17.80;91.60
69679;DHT22;56915;52.046;4.854;2022-09-09T17:11:38;17.80;92.30
69679;DHT22;56915;52.046;4.854;2022-09-09T17:14:07;17.70;92.60
69679;DHT22;56915;52.046;4.854;2022-09-09T17:16:40;17.70;93.10
69679;DHT22;56915;52.046;4.854;2022-09-09T17:19:10;17.70;93.50
69679;DHT22;56915;52.046;4.854;2022-09-09T17:21:39;17.60;93.70
69679;DHT22;56915;52.046;4.854;2022-09-09T17:24:27;17.60;93.90
69679;DHT22;56915;52.046;4.854;2022-09-09T17:26:56;17.50;94.20
69679;DHT22;56915;52.046;4.854;2022-09-09T17:29:24;17.50;94.40
69679;DHT22;56915;52.046;4.854;2022-09-09T17:31:51;17.40;94.60
69679;DHT22;56915;52.046;4.854;2022-09-09T17:34:18;17.40;94.90
69679;DHT22;56915;52.046;4.854;2022-09-09T17:36:44;17.40;95.30